Arrowbear Lake, California
Current Conditions -  °F | °C
As of 7:52 PM on Saturday 25 Oct 2014 (Local Time) from KSBD Reporting Station
Clear Clear  
Wind Chill: 70°   Ceiling: Unl
Heat Index: 70°   Visibility: 10mi
Dew Point: 48°   Wind: 5mph
Humidity: 46%   Direction: 220°SW
Pressure: 30.01"   Gusts: NA
Location:  34.1964°N, 117.089°W
Report Text: KSBD 260252Z 22004KT 10SM SKC 21/09 A3001
Loading
Personal Weather Stations






























Interactive Weather Map New forecast layout! Learn more

10-Day Weather Forecast

Advertisements
Track Severe Weather on mobile